sensor_id;sensor_type;location;lat;lon;timestamp;P1;durP1;ratioP1;P2;durP2;ratioP2
17235;SDS011;8734;59.272;17.780;2023-08-30T00:00:39;3.93;;;2.20;;
17235;SDS011;8734;59.272;17.780;2023-08-30T00:03:07;4.97;;;2.60;;
17235;SDS011;8734;59.272;17.780;2023-08-30T00:05:38;5.07;;;2.43;;
17235;SDS011;8734;59.272;17.780;2023-08-30T00:08:07;5.77;;;2.33;;
17235;SDS011;8734;59.272;17.780;2023-08-30T00:10:36;7.20;;;2.60;;
17235;SDS011;8734;59.272;17.780;2023-08-30T00:13:05;8.30;;;2.70;;
17235;SDS011;8734;59.272;17.780;2023-08-30T00:15:34;6.30;;;2.40;;
17235;SDS011;8734;59.272;17.780;2023-08-30T00:18:03;6.10;;;2.23;;
17235;SDS011;8734;59.272;17.780;2023-08-30T00:20:33;10.20;;;2.20;;
17235;SDS011;8734;59.272;17.780;2023-08-30T00:23:01;3.83;;;2.20;;
17235;SDS011;8734;59.272;17.780;2023-08-30T00:25:31;4.63;;;2.30;;
17235;SDS011;8734;59.272;17.780;2023-08-30T00:27:59;12.47;;;2.80;;
17235;SDS011;8734;59.272;17.780;2023-08-30T00:30:27;3.57;;;1.87;;
17235;SDS011;8734;59.272;17.780;2023-08-30T00:32:57;10.23;;;2.50;;
17235;SDS011;8734;59.272;17.780;2023-08-30T00:35:25;11.73;;;2.30;;
17235;SDS011;8734;59.272;17.780;2023-08-30T00:37:53;6.83;;;1.93;;
17235;SDS011;8734;59.272;17.780;2023-08-30T00:40:22;4.40;;;2.07;;
17235;SDS011;8734;59.272;17.780;2023-08-30T00:42:51;8.90;;;2.30;;
17235;SDS011;8734;59.272;17.780;2023-08-30T00:45:20;6.30;;;1.97;;
17235;SDS011;8734;59.272;17.780;2023-08-30T00:47:48;6.20;;;2.13;;
17235;SDS011;8734;59.272;17.780;2023-08-30T00:50:18;8.13;;;2.00;;
17235;SDS011;8734;59.272;17.780;2023-08-30T00:52:46;6.43;;;1.80;;
17235;SDS011;8734;59.272;17.780;2023-08-30T00:55:15;5.37;;;2.33;;
17235;SDS011;8734;59.272;17.780;2023-08-30T00:57:43;7.83;;;2.10;;
17235;SDS011;8734;59.272;17.780;2023-08-30T01:00:14;11.97;;;2.60;;
17235;SDS011;8734;59.272;17.780;2023-08-30T01:02:42;2.87;;;1.90;;
17235;SDS011;8734;59.272;17.780;2023-08-30T01:05:11;3.60;;;2.10;;
17235;SDS011;8734;59.272;17.780;2023-08-30T01:07:42;8.57;;;2.60;;
17235;SDS011;8734;59.272;17.780;2023-08-30T01:10:10;7.97;;;2.70;;
17235;SDS011;8734;59.272;17.780;2023-08-30T01:12:39;6.37;;;2.27;;
17235;SDS011;8734;59.272;17.780;2023-08-30T01:15:11;5.57;;;2.03;;
17235;SDS011;8734;59.272;17.780;2023-08-30T01:17:43;8.17;;;2.50;;
17235;SDS011;8734;59.272;17.780;2023-08-30T01:20:12;6.40;;;1.97;;
17235;SDS011;8734;59.272;17.780;2023-08-30T01:22:47;3.10;;;2.27;;
17235;SDS011;8734;59.272;17.780;2023-08-30T01:25:31;10.13;;;2.27;;
17235;SDS011;8734;59.272;17.780;2023-08-30T01:28:06;3.87;;;2.30;;
17235;SDS011;8734;59.272;17.780;2023-08-30T01:30:37;5.47;;;2.37;;
17235;SDS011;8734;59.272;17.780;2023-08-30T01:33:07;4.37;;;2.40;;
17235;SDS011;8734;59.272;17.780;2023-08-30T01:35:37;6.10;;;2.50;;
17235;SDS011;8734;59.272;17.780;2023-08-30T01:38:07;7.83;;;2.50;;
17235;SDS011;8734;59.272;17.780;2023-08-30T01:40:38;6.33;;;2.67;;
17235;SDS011;8734;59.272;17.780;2023-08-30T01:43:10;6.80;;;2.87;;
17235;SDS011;8734;59.272;17.780;2023-08-30T01:45:40;7.27;;;2.37;;
17235;SDS011;8734;59.272;17.780;2023-08-30T01:48:10;4.53;;;2.40;;
17235;SDS011;8734;59.272;17.780;2023-08-30T01:50:40;7.57;;;2.13;;
17235;SDS011;8734;59.272;17.780;2023-08-30T01:53:10;5.23;;;2.20;;
17235;SDS011;8734;59.272;17.780;2023-08-30T01:55:40;7.40;;;2.37;;
17235;SDS011;8734;59.272;17.780;2023-08-30T01:58:11;7.87;;;2.50;;
17235;SDS011;8734;59.272;17.780;2023-08-30T02:00:39;8.43;;;2.70;;
17235;SDS011;8734;59.272;17.780;2023-08-30T02:03:08;4.07;;;2.20;;
17235;SDS011;8734;59.272;17.780;2023-08-30T02:05:39;5.80;;;2.30;;
17235;SDS011;8734;59.272;17.780;2023-08-30T02:08:15;5.13;;;2.20;;
17235;SDS011;8734;59.272;17.780;2023-08-30T02:10:47;10.00;;;2.87;;
17235;SDS011;8734;59.272;17.780;2023-08-30T02:13:21;5.90;;;2.50;;
17235;SDS011;8734;59.272;17.780;2023-08-30T02:15:54;5.20;;;2.20;;
17235;SDS011;8734;59.272;17.780;2023-08-30T02:18:24;9.97;;;2.43;;
17235;SDS011;8734;59.272;17.780;2023-08-30T02:20:53;6.40;;;2.30;;
17235;SDS011;8734;59.272;17.780;2023-08-30T02:23:23;3.90;;;2.13;;
17235;SDS011;8734;59.272;17.780;2023-08-30T02:25:53;8.23;;;2.37;;
17235;SDS011;8734;59.272;17.780;2023-08-30T02:28:23;9.37;;;2.20;;
17235;SDS011;8734;59.272;17.780;2023-08-30T02:30:52;6.27;;;2.70;;
17235;SDS011;8734;59.272;17.780;2023-08-30T02:33:21;8.87;;;2.40;;
17235;SDS011;8734;59.272;17.780;2023-08-30T02:35:49;11.63;;;2.60;;
17235;SDS011;8734;59.272;17.780;2023-08-30T02:38:17;10.80;;;2.90;;
17235;SDS011;8734;59.272;17.780;2023-08-30T02:40:46;7.07;;;2.70;;
17235;SDS011;8734;59.272;17.780;2023-08-30T02:43:14;17.57;;;3.50;;
17235;SDS011;8734;59.272;17.780;2023-08-30T02:45:43;5.10;;;2.93;;
17235;SDS011;8734;59.272;17.780;2023-08-30T02:48:12;8.40;;;3.20;;
17235;SDS011;8734;59.272;17.780;2023-08-30T02:50:40;11.83;;;3.87;;
17235;SDS011;8734;59.272;17.780;2023-08-30T02:53:08;8.80;;;3.10;;
17235;SDS011;8734;59.272;17.780;2023-08-30T02:55:36;11.23;;;3.30;;
17235;SDS011;8734;59.272;17.780;2023-08-30T02:58:04;3.63;;;2.70;;
17235;SDS011;8734;59.272;17.780;2023-08-30T03:00:33;9.67;;;3.67;;
17235;SDS011;8734;59.272;17.780;2023-08-30T03:03:03;10.07;;;3.43;;
17235;SDS011;8734;59.272;17.780;2023-08-30T03:05:32;8.77;;;3.20;;
17235;SDS011;8734;59.272;17.780;2023-08-30T03:08:00;6.17;;;2.93;;
17235;SDS011;8734;59.272;17.780;2023-08-30T03:10:28;6.73;;;3.17;;
17235;SDS011;8734;59.272;17.780;2023-08-30T03:12:56;9.33;;;3.27;;
17235;SDS011;8734;59.272;17.780;2023-08-30T03:15:25;5.63;;;3.00;;
17235;SDS011;8734;59.272;17.780;2023-08-30T03:17:53;8.50;;;3.00;;
17235;SDS011;8734;59.272;17.780;2023-08-30T03:20:23;11.80;;;3.77;;
17235;SDS011;8734;59.272;17.780;2023-08-30T03:22:51;6.27;;;3.20;;
17235;SDS011;8734;59.272;17.780;2023-08-30T03:25:19;9.97;;;3.40;;
17235;SDS011;8734;59.272;17.780;2023-08-30T03:27:47;5.20;;;3.70;;
17235;SDS011;8734;59.272;17.780;2023-08-30T03:30:16;6.10;;;3.20;;
17235;SDS011;8734;59.272;17.780;2023-08-30T03:32:44;6.97;;;3.70;;
17235;SDS011;8734;59.272;17.780;2023-08-30T03:35:12;11.40;;;3.60;;
17235;SDS011;8734;59.272;17.780;2023-08-30T03:37:44;8.47;;;3.70;;
17235;SDS011;8734;59.272;17.780;2023-08-30T03:40:12;7.27;;;3.90;;
17235;SDS011;8734;59.272;17.780;2023-08-30T03:42:40;8.87;;;3.80;;
17235;SDS011;8734;59.272;17.780;2023-08-30T03:45:08;7.33;;;3.93;;
17235;SDS011;8734;59.272;17.780;2023-08-30T03:47:37;17.27;;;4.00;;
17235;SDS011;8734;59.272;17.780;2023-08-30T03:50:06;6.97;;;3.90;;
17235;SDS011;8734;59.272;17.780;2023-08-30T03:52:35;12.50;;;3.63;;
17235;SDS011;8734;59.272;17.780;2023-08-30T03:55:05;13.00;;;4.20;;
17235;SDS011;8734;59.272;17.780;2023-08-30T03:57:34;9.27;;;4.30;;
17235;SDS011;8734;59.272;17.780;2023-08-30T04:00:02;9.97;;;3.53;;
17235;SDS011;8734;59.272;17.780;2023-08-30T04:02:31;12.40;;;4.20;;
17235;SDS011;8734;59.272;17.780;2023-08-30T04:04:59;15.60;;;3.87;;
17235;SDS011;8734;59.272;17.780;2023-08-30T04:07:28;7.90;;;3.50;;
17235;SDS011;8734;59.272;17.780;2023-08-30T04:09:56;9.83;;;3.83;;
17235;SDS011;8734;59.272;17.780;2023-08-30T04:12:26;9.80;;;3.70;;
17235;SDS011;8734;59.272;17.780;2023-08-30T04:14:55;10.90;;;4.00;;
17235;SDS011;8734;59.272;17.780;2023-08-30T04:17:23;13.90;;;4.50;;
17235;SDS011;8734;59.272;17.780;2023-08-30T04:19:51;7.10;;;4.23;;
17235;SDS011;8734;59.272;17.780;2023-08-30T04:22:20;12.30;;;3.90;;
17235;SDS011;8734;59.272;17.780;2023-08-30T04:24:48;8.53;;;3.63;;
17235;SDS011;8734;59.272;17.780;2023-08-30T04:27:17;8.90;;;3.80;;
17235;SDS011;8734;59.272;17.780;2023-08-30T04:29:46;10.90;;;3.20;;
17235;SDS011;8734;59.272;17.780;2023-08-30T04:32:14;11.27;;;3.23;;
17235;SDS011;8734;59.272;17.780;2023-08-30T04:34:42;7.53;;;2.80;;
17235;SDS011;8734;59.272;17.780;2023-08-30T04:37:11;8.10;;;3.53;;
17235;SDS011;8734;59.272;17.780;2023-08-30T04:39:39;9.03;;;3.00;;
17235;SDS011;8734;59.272;17.780;2023-08-30T04:42:08;5.27;;;2.97;;
17235;SDS011;8734;59.272;17.780;2023-08-30T04:44:36;6.37;;;2.90;;
17235;SDS011;8734;59.272;17.780;2023-08-30T04:47:05;16.13;;;3.13;;
17235;SDS011;8734;59.272;17.780;2023-08-30T04:49:34;8.30;;;2.60;;
17235;SDS011;8734;59.272;17.780;2023-08-30T04:52:02;8.80;;;2.83;;
17235;SDS011;8734;59.272;17.780;2023-08-30T04:54:31;10.63;;;3.30;;
17235;SDS011;8734;59.272;17.780;2023-08-30T04:57:00;7.17;;;2.87;;
17235;SDS011;8734;59.272;17.780;2023-08-30T04:59:28;5.67;;;2.70;;
17235;SDS011;8734;59.272;17.780;2023-08-30T05:01:56;12.27;;;3.20;;
17235;SDS011;8734;59.272;17.780;2023-08-30T05:04:25;5.57;;;2.60;;
17235;SDS011;8734;59.272;17.780;2023-08-30T05:06:54;14.73;;;2.87;;
17235;SDS011;8734;59.272;17.780;2023-08-30T05:09:22;8.40;;;2.60;;
17235;SDS011;8734;59.272;17.780;2023-08-30T05:11:51;9.37;;;2.80;;
17235;SDS011;8734;59.272;17.780;2023-08-30T05:14:20;14.93;;;3.57;;
17235;SDS011;8734;59.272;17.780;2023-08-30T05:16:48;11.63;;;3.80;;
17235;SDS011;8734;59.272;17.780;2023-08-30T05:19:18;7.93;;;2.30;;
17235;SDS011;8734;59.272;17.780;2023-08-30T05:21:48;12.77;;;3.73;;
17235;SDS011;8734;59.272;17.780;2023-08-30T05:24:17;8.80;;;2.70;;
17235;SDS011;8734;59.272;17.780;2023-08-30T05:26:46;9.43;;;2.80;;
17235;SDS011;8734;59.272;17.780;2023-08-30T05:29:15;13.87;;;5.00;;
17235;SDS011;8734;59.272;17.780;2023-08-30T05:31:43;9.90;;;3.40;;
17235;SDS011;8734;59.272;17.780;2023-08-30T05:34:11;6.67;;;3.07;;
17235;SDS011;8734;59.272;17.780;2023-08-30T05:36:40;11.17;;;3.33;;
17235;SDS011;8734;59.272;17.780;2023-08-30T05:39:09;6.33;;;3.30;;
17235;SDS011;8734;59.272;17.780;2023-08-30T05:41:37;10.47;;;3.07;;
17235;SDS011;8734;59.272;17.780;2023-08-30T05:44:06;11.77;;;3.60;;
17235;SDS011;8734;59.272;17.780;2023-08-30T05:46:34;10.80;;;3.27;;
17235;SDS011;8734;59.272;17.780;2023-08-30T05:49:03;13.47;;;3.40;;
17235;SDS011;8734;59.272;17.780;2023-08-30T05:51:31;12.53;;;4.30;;
17235;SDS011;8734;59.272;17.780;2023-08-30T05:53:59;8.20;;;3.20;;
17235;SDS011;8734;59.272;17.780;2023-08-30T05:56:30;10.63;;;3.73;;
17235;SDS011;8734;59.272;17.780;2023-08-30T05:58:58;5.87;;;3.00;;
17235;SDS011;8734;59.272;17.780;2023-08-30T06:01:26;5.83;;;3.07;;
17235;SDS011;8734;59.272;17.780;2023-08-30T06:03:54;7.63;;;2.73;;
17235;SDS011;8734;59.272;17.780;2023-08-30T06:06:23;15.03;;;3.27;;
17235;SDS011;8734;59.272;17.780;2023-08-30T06:08:51;7.97;;;3.00;;
17235;SDS011;8734;59.272;17.780;2023-08-30T06:11:19;4.67;;;2.77;;
17235;SDS011;8734;59.272;17.780;2023-08-30T06:13:49;5.67;;;2.70;;
17235;SDS011;8734;59.272;17.780;2023-08-30T06:16:17;6.20;;;3.03;;
17235;SDS011;8734;59.272;17.780;2023-08-30T06:18:45;5.60;;;3.53;;
17235;SDS011;8734;59.272;17.780;2023-08-30T06:21:13;11.07;;;3.03;;
17235;SDS011;8734;59.272;17.780;2023-08-30T06:23:42;10.07;;;3.40;;
17235;SDS011;8734;59.272;17.780;2023-08-30T06:26:10;7.27;;;3.00;;
17235;SDS011;8734;59.272;17.780;2023-08-30T06:28:38;5.60;;;2.60;;
17235;SDS011;8734;59.272;17.780;2023-08-30T06:31:09;4.27;;;2.23;;
17235;SDS011;8734;59.272;17.780;2023-08-30T06:33:40;6.23;;;2.83;;
17235;SDS011;8734;59.272;17.780;2023-08-30T06:36:08;8.87;;;2.50;;
17235;SDS011;8734;59.272;17.780;2023-08-30T06:38:38;10.53;;;2.97;;
17235;SDS011;8734;59.272;17.780;2023-08-30T06:41:06;9.63;;;2.70;;
17235;SDS011;8734;59.272;17.780;2023-08-30T06:43:34;8.50;;;2.43;;
17235;SDS011;8734;59.272;17.780;2023-08-30T06:46:02;5.10;;;2.33;;
17235;SDS011;8734;59.272;17.780;2023-08-30T06:48:32;10.90;;;3.00;;
17235;SDS011;8734;59.272;17.780;2023-08-30T06:51:00;10.67;;;2.63;;
17235;SDS011;8734;59.272;17.780;2023-08-30T06:53:28;7.40;;;4.00;;
17235;SDS011;8734;59.272;17.780;2023-08-30T06:55:57;9.80;;;4.03;;
17235;SDS011;8734;59.272;17.780;2023-08-30T06:58:26;7.47;;;3.10;;
17235;SDS011;8734;59.272;17.780;2023-08-30T07:00:56;8.73;;;3.53;;
17235;SDS011;8734;59.272;17.780;2023-08-30T07:03:25;8.10;;;3.10;;
17235;SDS011;8734;59.272;17.780;2023-08-30T07:05:54;9.60;;;3.03;;
17235;SDS011;8734;59.272;17.780;2023-08-30T07:08:23;5.00;;;2.70;;
17235;SDS011;8734;59.272;17.780;2023-08-30T07:10:51;10.93;;;3.43;;
17235;SDS011;8734;59.272;17.780;2023-08-30T07:13:19;11.70;;;3.30;;
17235;SDS011;8734;59.272;17.780;2023-08-30T07:15:47;12.90;;;3.63;;
17235;SDS011;8734;59.272;17.780;2023-08-30T07:18:16;9.50;;;3.30;;
17235;SDS011;8734;59.272;17.780;2023-08-30T07:20:44;10.37;;;3.00;;
17235;SDS011;8734;59.272;17.780;2023-08-30T07:23:13;9.13;;;3.20;;
17235;SDS011;8734;59.272;17.780;2023-08-30T07:25:42;5.90;;;3.50;;
17235;SDS011;8734;59.272;17.780;2023-08-30T07:28:10;10.87;;;4.30;;
17235;SDS011;8734;59.272;17.780;2023-08-30T07:30:38;8.93;;;3.93;;
17235;SDS011;8734;59.272;17.780;2023-08-30T07:33:06;11.40;;;3.80;;
17235;SDS011;8734;59.272;17.780;2023-08-30T07:35:35;7.37;;;4.07;;
17235;SDS011;8734;59.272;17.780;2023-08-30T07:38:03;6.87;;;3.80;;
17235;SDS011;8734;59.272;17.780;2023-08-30T07:40:32;12.57;;;4.20;;
17235;SDS011;8734;59.272;17.780;2023-08-30T07:43:01;10.10;;;4.10;;
17235;SDS011;8734;59.272;17.780;2023-08-30T07:45:29;11.60;;;4.10;;
17235;SDS011;8734;59.272;17.780;2023-08-30T07:47:57;13.47;;;4.83;;
17235;SDS011;8734;59.272;17.780;2023-08-30T07:50:25;14.90;;;5.27;;
17235;SDS011;8734;59.272;17.780;2023-08-30T07:52:53;7.37;;;4.20;;
17235;SDS011;8734;59.272;17.780;2023-08-30T07:55:22;10.37;;;4.40;;
17235;SDS011;8734;59.272;17.780;2023-08-30T07:57:51;17.53;;;5.10;;
17235;SDS011;8734;59.272;17.780;2023-08-30T08:00:19;14.00;;;4.90;;
17235;SDS011;8734;59.272;17.780;2023-08-30T08:02:48;8.77;;;4.00;;
17235;SDS011;8734;59.272;17.780;2023-08-30T08:05:16;11.07;;;4.87;;
17235;SDS011;8734;59.272;17.780;2023-08-30T08:07:44;9.43;;;3.97;;
17235;SDS011;8734;59.272;17.780;2023-08-30T08:10:13;10.93;;;3.80;;
17235;SDS011;8734;59.272;17.780;2023-08-30T08:12:41;11.00;;;3.77;;
17235;SDS011;8734;59.272;17.780;2023-08-30T08:15:11;10.07;;;4.30;;
17235;SDS011;8734;59.272;17.780;2023-08-30T08:17:39;9.83;;;3.80;;
17235;SDS011;8734;59.272;17.780;2023-08-30T08:20:07;9.97;;;4.03;;
17235;SDS011;8734;59.272;17.780;2023-08-30T08:22:36;8.87;;;3.70;;
17235;SDS011;8734;59.272;17.780;2023-08-30T08:25:04;12.17;;;3.80;;
17235;SDS011;8734;59.272;17.780;2023-08-30T08:27:36;14.57;;;4.03;;
17235;SDS011;8734;59.272;17.780;2023-08-30T08:30:05;9.20;;;3.60;;
17235;SDS011;8734;59.272;17.780;2023-08-30T08:32:35;9.33;;;3.57;;
17235;SDS011;8734;59.272;17.780;2023-08-30T08:35:04;8.80;;;3.17;;
17235;SDS011;8734;59.272;17.780;2023-08-30T08:37:33;7.83;;;3.37;;
17235;SDS011;8734;59.272;17.780;2023-08-30T08:40:01;10.37;;;3.57;;
17235;SDS011;8734;59.272;17.780;2023-08-30T08:42:35;8.23;;;3.77;;
17235;SDS011;8734;59.272;17.780;2023-08-30T08:45:04;11.00;;;3.70;;
17235;SDS011;8734;59.272;17.780;2023-08-30T08:47:32;9.63;;;4.80;;
17235;SDS011;8734;59.272;17.780;2023-08-30T08:50:03;10.80;;;3.53;;
17235;SDS011;8734;59.272;17.780;2023-08-30T08:52:32;7.87;;;3.40;;
17235;SDS011;8734;59.272;17.780;2023-08-30T08:55:16;10.60;;;3.67;;
17235;SDS011;8734;59.272;17.780;2023-08-30T08:57:45;9.23;;;3.27;;
17235;SDS011;8734;59.272;17.780;2023-08-30T09:00:15;8.47;;;3.50;;
17235;SDS011;8734;59.272;17.780;2023-08-30T09:02:44;5.93;;;3.27;;
17235;SDS011;8734;59.272;17.780;2023-08-30T09:05:14;10.47;;;3.60;;
17235;SDS011;8734;59.272;17.780;2023-08-30T09:07:43;11.97;;;3.33;;
17235;SDS011;8734;59.272;17.780;2023-08-30T09:10:12;7.70;;;2.93;;
17235;SDS011;8734;59.272;17.780;2023-08-30T09:12:40;10.00;;;3.27;;
17235;SDS011;8734;59.272;17.780;2023-08-30T09:15:08;7.77;;;3.30;;
17235;SDS011;8734;59.272;17.780;2023-08-30T09:17:37;12.77;;;3.40;;
17235;SDS011;8734;59.272;17.780;2023-08-30T09:20:09;8.47;;;2.80;;
17235;SDS011;8734;59.272;17.780;2023-08-30T09:22:40;4.10;;;2.70;;
17235;SDS011;8734;59.272;17.780;2023-08-30T09:25:10;8.90;;;2.53;;
17235;SDS011;8734;59.272;17.780;2023-08-30T09:27:39;10.60;;;2.63;;
17235;SDS011;8734;59.272;17.780;2023-08-30T09:30:09;4.80;;;2.30;;
17235;SDS011;8734;59.272;17.780;2023-08-30T09:32:38;5.67;;;2.20;;
17235;SDS011;8734;59.272;17.780;2023-08-30T09:35:08;4.57;;;2.20;;
17235;SDS011;8734;59.272;17.780;2023-08-30T09:37:37;2.07;;;1.80;;
17235;SDS011;8734;59.272;17.780;2023-08-30T09:40:07;4.57;;;1.97;;
17235;SDS011;8734;59.272;17.780;2023-08-30T09:42:40;5.57;;;2.20;;
17235;SDS011;8734;59.272;17.780;2023-08-30T09:45:17;3.83;;;2.13;;
17235;SDS011;8734;59.272;17.780;2023-08-30T09:47:49;5.13;;;2.27;;
17235;SDS011;8734;59.272;17.780;2023-08-30T09:50:18;7.67;;;1.93;;
17235;SDS011;8734;59.272;17.780;2023-08-30T09:52:47;8.00;;;1.90;;
17235;SDS011;8734;59.272;17.780;2023-08-30T09:55:20;7.10;;;1.97;;
17235;SDS011;8734;59.272;17.780;2023-08-30T09:57:50;6.07;;;2.10;;
17235;SDS011;8734;59.272;17.780;2023-08-30T10:00:18;2.63;;;1.70;;
17235;SDS011;8734;59.272;17.780;2023-08-30T10:02:47;4.40;;;1.87;;
17235;SDS011;8734;59.272;17.780;2023-08-30T10:05:36;3.73;;;1.50;;
17235;SDS011;8734;59.272;17.780;2023-08-30T10:08:05;5.30;;;1.60;;
17235;SDS011;8734;59.272;17.780;2023-08-30T10:10:36;4.27;;;1.73;;
17235;SDS011;8734;59.272;17.780;2023-08-30T10:13:06;5.47;;;1.90;;
17235;SDS011;8734;59.272;17.780;2023-08-30T10:15:38;10.67;;;1.80;;
17235;SDS011;8734;59.272;17.780;2023-08-30T10:18:10;8.23;;;2.17;;
17235;SDS011;8734;59.272;17.780;2023-08-30T10:20:42;6.57;;;1.90;;
17235;SDS011;8734;59.272;17.780;2023-08-30T10:23:11;7.13;;;1.40;;
17235;SDS011;8734;59.272;17.780;2023-08-30T10:25:42;2.40;;;1.43;;
17235;SDS011;8734;59.272;17.780;2023-08-30T10:28:12;4.77;;;1.57;;
17235;SDS011;8734;59.272;17.780;2023-08-30T10:30:41;4.27;;;1.50;;
17235;SDS011;8734;59.272;17.780;2023-08-30T10:33:13;2.90;;;1.70;;
17235;SDS011;8734;59.272;17.780;2023-08-30T10:35:51;2.00;;;1.40;;
17235;SDS011;8734;59.272;17.780;2023-08-30T10:38:25;5.47;;;1.67;;
17235;SDS011;8734;59.272;17.780;2023-08-30T10:40:58;4.17;;;1.73;;
17235;SDS011;8734;59.272;17.780;2023-08-30T10:43:34;6.27;;;1.70;;
17235;SDS011;8734;59.272;17.780;2023-08-30T10:46:04;7.43;;;2.13;;
17235;SDS011;8734;59.272;17.780;2023-08-30T10:48:34;4.07;;;1.80;;
17235;SDS011;8734;59.272;17.780;2023-08-30T10:51:04;2.67;;;1.53;;
17235;SDS011;8734;59.272;17.780;2023-08-30T10:53:34;7.00;;;1.50;;
17235;SDS011;8734;59.272;17.780;2023-08-30T10:56:04;7.57;;;1.40;;
17235;SDS011;8734;59.272;17.780;2023-08-30T10:58:43;4.13;;;1.37;;
17235;SDS011;8734;59.272;17.780;2023-08-30T11:01:11;3.20;;;1.70;;
17235;SDS011;8734;59.272;17.780;2023-08-30T11:03:41;3.60;;;1.70;;
17235;SDS011;8734;59.272;17.780;2023-08-30T11:06:13;3.83;;;1.40;;
17235;SDS011;8734;59.272;17.780;2023-08-30T11:08:43;3.23;;;1.60;;
17235;SDS011;8734;59.272;17.780;2023-08-30T11:11:13;3.70;;;1.50;;
17235;SDS011;8734;59.272;17.780;2023-08-30T11:13:42;3.77;;;1.73;;
17235;SDS011;8734;59.272;17.780;2023-08-30T11:16:10;3.77;;;1.60;;
17235;SDS011;8734;59.272;17.780;2023-08-30T11:18:39;2.40;;;1.33;;
17235;SDS011;8734;59.272;17.780;2023-08-30T11:21:08;4.60;;;1.40;;
17235;SDS011;8734;59.272;17.780;2023-08-30T11:23:39;2.40;;;1.40;;
17235;SDS011;8734;59.272;17.780;2023-08-30T11:26:07;3.47;;;1.57;;
17235;SDS011;8734;59.272;17.780;2023-08-30T11:28:37;5.80;;;1.50;;
17235;SDS011;8734;59.272;17.780;2023-08-30T11:31:17;1.97;;;1.30;;
17235;SDS011;8734;59.272;17.780;2023-08-30T11:33:51;6.63;;;1.67;;
17235;SDS011;8734;59.272;17.780;2023-08-30T11:36:22;4.37;;;1.67;;
17235;SDS011;8734;59.272;17.780;2023-08-30T11:38:51;3.73;;;1.50;;
17235;SDS011;8734;59.272;17.780;2023-08-30T11:41:20;6.80;;;1.60;;
17235;SDS011;8734;59.272;17.780;2023-08-30T11:43:51;3.47;;;1.30;;
17235;SDS011;8734;59.272;17.780;2023-08-30T11:46:20;2.17;;;1.50;;
17235;SDS011;8734;59.272;17.780;2023-08-30T11:48:49;4.70;;;1.43;;
17235;SDS011;8734;59.272;17.780;2023-08-30T11:51:19;4.40;;;1.87;;
17235;SDS011;8734;59.272;17.780;2023-08-30T11:53:47;3.60;;;1.60;;
17235;SDS011;8734;59.272;17.780;2023-08-30T11:56:16;6.97;;;1.73;;
17235;SDS011;8734;59.272;17.780;2023-08-30T11:58:45;2.93;;;1.40;;
17235;SDS011;8734;59.272;17.780;2023-08-30T12:01:15;3.93;;;2.03;;
17235;SDS011;8734;59.272;17.780;2023-08-30T12:03:45;6.30;;;1.97;;
17235;SDS011;8734;59.272;17.780;2023-08-30T12:06:17;6.93;;;2.00;;
17235;SDS011;8734;59.272;17.780;2023-08-30T12:08:45;6.67;;;2.33;;
17235;SDS011;8734;59.272;17.780;2023-08-30T12:11:17;4.53;;;2.07;;
17235;SDS011;8734;59.272;17.780;2023-08-30T12:13:46;7.47;;;2.03;;
17235;SDS011;8734;59.272;17.780;2023-08-30T12:16:16;4.90;;;1.83;;
17235;SDS011;8734;59.272;17.780;2023-08-30T12:18:47;5.13;;;2.10;;
17235;SDS011;8734;59.272;17.780;2023-08-30T12:21:15;2.67;;;1.73;;
17235;SDS011;8734;59.272;17.780;2023-08-30T12:23:43;3.47;;;1.93;;
17235;SDS011;8734;59.272;17.780;2023-08-30T12:26:11;5.63;;;1.90;;
17235;SDS011;8734;59.272;17.780;2023-08-30T12:28:40;4.23;;;2.23;;
17235;SDS011;8734;59.272;17.780;2023-08-30T12:31:11;6.53;;;2.00;;
17235;SDS011;8734;59.272;17.780;2023-08-30T12:33:40;5.70;;;2.07;;
17235;SDS011;8734;59.272;17.780;2023-08-30T12:36:08;4.37;;;2.37;;
17235;SDS011;8734;59.272;17.780;2023-08-30T12:38:37;5.77;;;1.87;;
17235;SDS011;8734;59.272;17.780;2023-08-30T12:41:05;7.23;;;2.27;;
17235;SDS011;8734;59.272;17.780;2023-08-30T12:43:34;6.87;;;1.90;;
17235;SDS011;8734;59.272;17.780;2023-08-30T12:46:02;7.17;;;1.90;;
17235;SDS011;8734;59.272;17.780;2023-08-30T12:48:31;8.00;;;2.00;;
17235;SDS011;8734;59.272;17.780;2023-08-30T12:51:01;5.33;;;1.90;;
17235;SDS011;8734;59.272;17.780;2023-08-30T12:53:30;5.07;;;2.00;;
17235;SDS011;8734;59.272;17.780;2023-08-30T12:55:58;6.63;;;1.80;;
17235;SDS011;8734;59.272;17.780;2023-08-30T12:58:26;6.47;;;1.90;;
17235;SDS011;8734;59.272;17.780;2023-08-30T13:00:54;5.63;;;1.80;;
17235;SDS011;8734;59.272;17.780;2023-08-30T13:03:22;9.00;;;1.80;;
17235;SDS011;8734;59.272;17.780;2023-08-30T13:05:51;4.50;;;1.50;;
17235;SDS011;8734;59.272;17.780;2023-08-30T13:08:20;6.80;;;1.80;;
17235;SDS011;8734;59.272;17.780;2023-08-30T13:10:49;12.00;;;2.13;;
17235;SDS011;8734;59.272;17.780;2023-08-30T13:13:17;7.87;;;1.70;;
17235;SDS011;8734;59.272;17.780;2023-08-30T13:15:47;8.57;;;1.90;;
17235;SDS011;8734;59.272;17.780;2023-08-30T13:18:16;9.03;;;1.70;;
17235;SDS011;8734;59.272;17.780;2023-08-30T13:20:44;6.43;;;1.70;;
17235;SDS011;8734;59.272;17.780;2023-08-30T13:23:12;3.53;;;1.40;;
17235;SDS011;8734;59.272;17.780;2023-08-30T13:25:42;8.67;;;2.03;;
17235;SDS011;8734;59.272;17.780;2023-08-30T13:28:10;6.43;;;1.83;;
17235;SDS011;8734;59.272;17.780;2023-08-30T13:30:43;4.87;;;1.90;;
17235;SDS011;8734;59.272;17.780;2023-08-30T13:33:12;5.83;;;1.70;;
17235;SDS011;8734;59.272;17.780;2023-08-30T13:35:41;4.80;;;1.70;;
17235;SDS011;8734;59.272;17.780;2023-08-30T13:38:09;2.37;;;1.40;;
17235;SDS011;8734;59.272;17.780;2023-08-30T13:40:37;8.27;;;1.83;;
17235;SDS011;8734;59.272;17.780;2023-08-30T13:43:07;3.60;;;1.57;;
17235;SDS011;8734;59.272;17.780;2023-08-30T13:45:35;5.67;;;1.90;;
17235;SDS011;8734;59.272;17.780;2023-08-30T13:48:04;4.57;;;1.70;;
17235;SDS011;8734;59.272;17.780;2023-08-30T13:50:33;2.60;;;1.43;;
17235;SDS011;8734;59.272;17.780;2023-08-30T13:53:01;4.80;;;1.77;;
17235;SDS011;8734;59.272;17.780;2023-08-30T13:55:29;5.27;;;1.60;;
17235;SDS011;8734;59.272;17.780;2023-08-30T13:57:59;7.40;;;1.63;;
17235;SDS011;8734;59.272;17.780;2023-08-30T14:00:29;4.03;;;1.27;;
17235;SDS011;8734;59.272;17.780;2023-08-30T14:02:57;3.43;;;1.40;;
17235;SDS011;8734;59.272;17.780;2023-08-30T14:05:25;2.50;;;1.30;;
17235;SDS011;8734;59.272;17.780;2023-08-30T14:07:53;2.97;;;1.80;;
17235;SDS011;8734;59.272;17.780;2023-08-30T14:10:22;2.70;;;1.30;;
17235;SDS011;8734;59.272;17.780;2023-08-30T14:12:50;5.73;;;1.50;;
17235;SDS011;8734;59.272;17.780;2023-08-30T14:15:18;4.23;;;1.00;;
17235;SDS011;8734;59.272;17.780;2023-08-30T14:17:48;2.60;;;1.30;;
17235;SDS011;8734;59.272;17.780;2023-08-30T14:20:17;1.33;;;1.17;;
17235;SDS011;8734;59.272;17.780;2023-08-30T14:22:45;2.70;;;1.37;;
17235;SDS011;8734;59.272;17.780;2023-08-30T14:25:13;4.80;;;1.10;;
17235;SDS011;8734;59.272;17.780;2023-08-30T14:27:42;2.10;;;1.00;;
17235;SDS011;8734;59.272;17.780;2023-08-30T14:30:10;4.37;;;1.20;;
17235;SDS011;8734;59.272;17.780;2023-08-30T14:32:39;3.37;;;1.10;;
17235;SDS011;8734;59.272;17.780;2023-08-30T14:35:09;1.83;;;1.13;;
17235;SDS011;8734;59.272;17.780;2023-08-30T14:37:37;1.70;;;1.13;;
17235;SDS011;8734;59.272;17.780;2023-08-30T14:40:06;1.87;;;1.10;;
17235;SDS011;8734;59.272;17.780;2023-08-30T14:42:35;4.03;;;1.20;;
17235;SDS011;8734;59.272;17.780;2023-08-30T14:45:04;5.07;;;1.23;;
17235;SDS011;8734;59.272;17.780;2023-08-30T14:47:33;2.03;;;0.90;;
17235;SDS011;8734;59.272;17.780;2023-08-30T14:50:02;2.33;;;1.30;;
17235;SDS011;8734;59.272;17.780;2023-08-30T14:52:31;2.03;;;1.20;;
17235;SDS011;8734;59.272;17.780;2023-08-30T14:55:00;1.70;;;1.10;;
17235;SDS011;8734;59.272;17.780;2023-08-30T14:57:28;2.20;;;1.17;;